createdAt,value
2023-10-15T00:00:40.963Z,5.75
2023-10-15T00:03:42.906Z,6.03
2023-10-15T00:06:45.087Z,5.07
2023-10-15T00:09:47.180Z,4.78
2023-10-15T00:12:50.676Z,5.10
2023-10-15T00:15:53.323Z,4.50
2023-10-15T00:18:55.219Z,4.70
2023-10-15T00:21:57.168Z,4.03
2023-10-15T00:25:02.618Z,4.05
2023-10-15T00:28:11.906Z,4.28
2023-10-15T00:31:15.214Z,3.67
2023-10-15T00:34:18.389Z,3.33
2023-10-15T00:37:20.412Z,3.00
2023-10-15T00:40:26.607Z,3.13
2023-10-15T00:43:34.112Z,2.13
2023-10-15T00:46:39.238Z,1.35
2023-10-15T00:49:42.948Z,1.52
2023-10-15T00:52:44.944Z,1.50
2023-10-15T00:55:47.315Z,1.45
2023-10-15T00:58:55.318Z,1.17
2023-10-15T01:02:03.113Z,1.50
2023-10-15T01:05:05.553Z,1.70
2023-10-15T01:08:08.588Z,1.27
2023-10-15T01:11:16.213Z,1.45
2023-10-15T01:14:26.957Z,1.20
2023-10-15T01:17:29.606Z,1.50
2023-10-15T01:20:31.936Z,1.20
2023-10-15T01:23:41.906Z,1.10
2023-10-15T01:26:51.010Z,0.80
2023-10-15T01:29:52.941Z,0.85
2023-10-15T01:32:56.496Z,0.80
2023-10-15T01:36:07.728Z,0.98
2023-10-15T01:39:13.978Z,0.80
2023-10-15T01:42:28.416Z,0.90
2023-10-15T01:45:33.595Z,0.60
2023-10-15T01:48:40.965Z,0.70
2023-10-15T01:51:42.985Z,0.82
2023-10-15T01:54:46.718Z,0.80
2023-10-15T01:57:48.568Z,0.90
2023-10-15T02:00:51.868Z,0.70
2023-10-15T02:03:53.768Z,0.80
2023-10-15T02:06:56.742Z,0.80
2023-10-15T02:09:59.135Z,0.70
2023-10-15T02:13:04.834Z,0.70
2023-10-15T02:16:16.859Z,0.80
2023-10-15T02:19:36.712Z,0.70
2023-10-15T02:22:43.482Z,0.77
2023-10-15T02:25:50.223Z,0.70
2023-10-15T02:28:58.580Z,0.60
2023-10-15T02:32:09.615Z,0.77
2023-10-15T02:35:15.099Z,0.60
2023-10-15T02:38:18.380Z,1.00
2023-10-15T02:41:29.429Z,1.17
2023-10-15T02:44:34.287Z,1.00
2023-10-15T02:47:43.144Z,0.73
2023-10-15T02:50:59.303Z,0.82
2023-10-15T02:54:11.212Z,0.82
2023-10-15T02:57:20.568Z,0.90
2023-10-15T03:00:33.839Z,1.20
2023-10-15T03:03:36.303Z,0.98
2023-10-15T03:06:43.144Z,1.17
2023-10-15T03:09:46.190Z,0.90
2023-10-15T03:12:51.600Z,0.97
2023-10-15T03:15:54.473Z,1.10
2023-10-15T03:18:58.081Z,1.42
2023-10-15T03:22:00.049Z,1.10
2023-10-15T03:25:04.292Z,1.60
2023-10-15T03:28:08.614Z,1.13
2023-10-15T03:31:13.974Z,1.30
2023-10-15T03:34:19.155Z,1.30
2023-10-15T03:37:23.921Z,1.00
2023-10-15T03:40:32.544Z,1.20
2023-10-15T03:43:40.559Z,1.30
2023-10-15T03:46:42.682Z,1.23
2023-10-15T03:49:47.698Z,1.40
2023-10-15T03:52:50.113Z,1.20
2023-10-15T03:55:52.269Z,1.52
2023-10-15T03:58:56.743Z,1.40
2023-10-15T04:01:59.085Z,1.30
2023-10-15T04:05:10.280Z,1.27
2023-10-15T04:08:19.932Z,1.55
2023-10-15T04:11:30.521Z,1.48
2023-10-15T04:14:38.299Z,1.73
2023-10-15T04:17:40.550Z,1.70
2023-10-15T04:20:43.623Z,1.40
2023-10-15T04:23:50.950Z,1.73
2023-10-15T04:26:52.948Z,1.58
2023-10-15T04:29:56.814Z,1.90
2023-10-15T04:32:58.936Z,1.70
2023-10-15T04:36:02.771Z,1.90
2023-10-15T04:39:13.404Z,1.70
2023-10-15T04:42:22.551Z,1.60
2023-10-15T04:45:31.505Z,1.43
2023-10-15T04:48:34.664Z,1.50
2023-10-15T04:51:45.331Z,1.67
2023-10-15T04:54:47.305Z,1.20
2023-10-15T04:57:49.148Z,1.52
2023-10-15T05:00:51.364Z,1.13
2023-10-15T05:03:53.995Z,1.45
2023-10-15T05:06:57.264Z,1.17
2023-10-15T05:10:01.082Z,1.30
2023-10-15T05:13:03.062Z,1.38
2023-10-15T05:16:08.049Z,1.20
2023-10-15T05:19:10.121Z,1.40
2023-10-15T05:22:21.424Z,1.45
2023-10-15T05:25:23.555Z,1.23
2023-10-15T05:28:25.557Z,1.55
2023-10-15T05:31:28.320Z,1.43
2023-10-15T05:34:31.098Z,1.30
2023-10-15T05:37:33.419Z,1.30
2023-10-15T05:40:36.710Z,1.63
2023-10-15T05:43:38.622Z,1.35
2023-10-15T05:46:40.690Z,1.60
2023-10-15T05:49:42.581Z,1.40
2023-10-15T05:52:44.811Z,1.17
2023-10-15T05:55:47.124Z,1.30
2023-10-15T05:58:50.338Z,1.23
2023-10-15T06:01:53.003Z,1.30
2023-10-15T06:04:54.864Z,1.25
2023-10-15T06:07:56.711Z,1.10
2023-10-15T06:10:58.967Z,1.20
2023-10-15T06:14:00.908Z,1.30
2023-10-15T06:17:03.193Z,1.33
2023-10-15T06:20:14.835Z,1.10
2023-10-15T06:23:19.348Z,1.30
2023-10-15T06:26:21.613Z,1.33
2023-10-15T06:29:24.273Z,1.67
2023-10-15T06:32:26.235Z,1.27
2023-10-15T06:35:28.326Z,1.30
2023-10-15T06:38:30.309Z,1.48
2023-10-15T06:41:33.119Z,1.50
2023-10-15T06:44:35.004Z,1.40
2023-10-15T06:47:38.027Z,1.60
2023-10-15T06:50:40.760Z,1.52
2023-10-15T06:53:43.090Z,1.60
2023-10-15T06:56:45.063Z,1.50
2023-10-15T06:59:46.890Z,1.50
2023-10-15T07:02:52.920Z,1.63
2023-10-15T07:05:54.978Z,1.90
2023-10-15T07:08:56.813Z,1.45
2023-10-15T07:12:08.266Z,1.60
2023-10-15T07:15:11.142Z,1.88
2023-10-15T07:18:14.719Z,1.77
2023-10-15T07:21:16.677Z,1.63
2023-10-15T07:24:18.679Z,2.10
2023-10-15T07:27:21.222Z,1.50
2023-10-15T07:30:23.336Z,1.55
2023-10-15T07:33:27.228Z,1.67
2023-10-15T07:36:29.751Z,1.30
2023-10-15T07:39:41.137Z,1.42
2023-10-15T07:42:45.919Z,1.27
2023-10-15T07:45:47.744Z,1.65
2023-10-15T07:48:49.737Z,1.50
2023-10-15T07:51:52.592Z,1.45
2023-10-15T07:54:55.443Z,1.50
2023-10-15T07:57:59.456Z,1.67
2023-10-15T08:01:11.480Z,1.23
2023-10-15T08:04:14.960Z,1.53
2023-10-15T08:07:17.181Z,1.58
2023-10-15T08:10:21.949Z,1.95
2023-10-15T08:13:23.916Z,1.85
2023-10-15T08:16:29.525Z,1.55
2023-10-15T08:19:31.391Z,1.60
2023-10-15T08:22:33.595Z,1.80
2023-10-15T08:25:35.780Z,1.48
2023-10-15T08:28:39.213Z,1.75
2023-10-15T08:31:41.258Z,1.20
2023-10-15T08:34:44.378Z,1.60
2023-10-15T08:37:47.231Z,1.70
2023-10-15T08:40:49.987Z,1.50
2023-10-15T08:43:52.726Z,1.33
2023-10-15T08:46:54.722Z,2.28
2023-10-15T08:49:56.702Z,1.73
2023-10-15T08:52:58.923Z,1.88
2023-10-15T08:56:02.635Z,2.10
2023-10-15T08:59:05.945Z,2.05
2023-10-15T09:02:08.175Z,2.00
2023-10-15T09:05:10.180Z,1.67
2023-10-15T09:08:15.189Z,1.50
2023-10-15T09:11:17.687Z,1.58
2023-10-15T09:14:22.626Z,1.58
2023-10-15T09:17:27.879Z,1.85
2023-10-15T09:20:34.255Z,1.40
2023-10-15T09:23:38.216Z,1.48
2023-10-15T09:26:41.327Z,1.83
2023-10-15T09:29:44.492Z,2.58
2023-10-15T09:32:49.815Z,1.90
2023-10-15T09:35:51.801Z,1.47
2023-10-15T09:38:55.978Z,1.77
2023-10-15T09:41:58.068Z,1.98
2023-10-15T09:45:03.251Z,1.35
2023-10-15T09:48:06.867Z,2.20
2023-10-15T09:51:09.539Z,1.57
2023-10-15T09:54:15.638Z,1.75
2023-10-15T09:57:17.619Z,1.25
2023-10-15T10:00:34.270Z,1.42
2023-10-15T10:04:04.531Z,1.40
2023-10-15T10:07:12.288Z,1.73
2023-10-15T10:10:40.210Z,1.88
2023-10-15T10:14:25.145Z,1.70
2023-10-15T10:17:28.458Z,1.85
2023-10-15T10:20:34.014Z,1.67
2023-10-15T10:26:55.624Z,1.50
2023-10-15T10:30:25.148Z,1.77
2023-10-15T10:33:50.368Z,1.50
2023-10-15T10:37:01.329Z,2.00
2023-10-15T10:40:03.497Z,1.30
2023-10-15T10:43:05.755Z,1.73
2023-10-15T10:46:10.398Z,1.50
2023-10-15T10:49:18.199Z,1.48
2023-10-15T10:52:28.835Z,1.70
2023-10-15T10:55:33.843Z,1.30
2023-10-15T10:58:37.896Z,1.23
2023-10-15T11:01:40.973Z,1.35
2023-10-15T11:04:46.257Z,2.00
2023-10-15T11:07:49.352Z,1.42
2023-10-15T11:10:51.526Z,1.70
2023-10-15T11:13:57.037Z,1.50
2023-10-15T11:16:59.076Z,1.30
2023-10-15T11:20:01.021Z,1.48
2023-10-15T11:23:07.666Z,1.50
2023-10-15T11:26:17.506Z,1.20
2023-10-15T11:29:20.178Z,1.42
2023-10-15T11:32:23.114Z,1.38
2023-10-15T11:35:27.807Z,1.52
2023-10-15T11:38:35.603Z,1.35
2023-10-15T11:41:39.418Z,1.80
2023-10-15T11:44:45.244Z,1.48
2023-10-15T11:47:49.326Z,1.10
2023-10-15T11:50:55.383Z,1.25
2023-10-15T11:54:02.640Z,1.45
2023-10-15T11:57:06.014Z,1.50
2023-10-15T12:00:12.651Z,1.50
2023-10-15T12:03:17.784Z,1.60
2023-10-15T12:06:19.897Z,1.50
2023-10-15T12:09:28.009Z,1.70
2023-10-15T12:12:30.000Z,1.47
2023-10-15T12:15:33.252Z,1.73
2023-10-15T12:18:35.151Z,1.88
2023-10-15T12:21:43.506Z,1.80
2023-10-15T12:24:49.696Z,1.30
2023-10-15T12:27:51.703Z,1.70
2023-10-15T12:30:55.383Z,1.60
2023-10-15T12:33:57.752Z,1.60
2023-10-15T12:36:59.601Z,1.90
2023-10-15T12:40:01.536Z,1.80
2023-10-15T12:43:10.630Z,2.07
2023-10-15T12:46:12.588Z,1.60
2023-10-15T12:49:14.660Z,1.70
2023-10-15T12:52:16.456Z,1.35
2023-10-15T12:55:21.059Z,1.67
2023-10-15T12:58:23.623Z,1.43
2023-10-15T13:01:25.603Z,1.80
2023-10-15T13:04:28.479Z,1.35
2023-10-15T13:07:30.634Z,1.40
2023-10-15T13:10:33.909Z,1.52
2023-10-15T13:16:48.276Z,1.67
2023-10-15T13:19:50.205Z,2.08
2023-10-15T13:22:52.159Z,1.50
2023-10-15T13:25:55.222Z,1.65
2023-10-15T13:28:57.196Z,1.30
2023-10-15T13:31:59.208Z,1.27
2023-10-15T13:35:01.257Z,1.20
2023-10-15T13:38:03.393Z,1.60
2023-10-15T13:41:05.622Z,0.93
2023-10-15T13:44:07.693Z,1.40
2023-10-15T13:47:11.593Z,1.60
2023-10-15T13:50:19.029Z,1.20
2023-10-15T13:53:21.263Z,1.50
2023-10-15T13:56:23.348Z,1.23
2023-10-15T13:59:25.958Z,0.87
2023-10-15T14:02:28.347Z,1.38
2023-10-15T14:05:34.333Z,1.10
2023-10-15T14:08:36.401Z,1.20
2023-10-15T14:11:38.843Z,1.40
2023-10-15T14:14:40.946Z,1.10
2023-10-15T14:17:46.004Z,1.40
2023-10-15T14:20:48.088Z,1.17
2023-10-15T14:23:49.964Z,1.42
2023-10-15T14:26:53.251Z,1.35
2023-10-15T14:29:55.122Z,1.23
2023-10-15T14:32:58.619Z,1.58
2023-10-15T14:36:03.958Z,1.70
2023-10-15T14:39:07.756Z,1.35
2023-10-15T14:42:13.547Z,1.50
2023-10-15T14:45:17.632Z,1.30
2023-10-15T14:48:19.719Z,1.30
2023-10-15T14:51:22.557Z,1.25
2023-10-15T14:54:27.707Z,1.40
2023-10-15T14:57:32.613Z,1.40
2023-10-15T15:00:34.982Z,1.20
2023-10-15T15:03:37.751Z,1.38
2023-10-15T15:06:39.826Z,1.20
2023-10-15T15:09:45.269Z,1.17
2023-10-15T15:12:47.696Z,1.00
2023-10-15T15:15:49.689Z,1.07
2023-10-15T15:18:52.137Z,1.02
2023-10-15T15:21:55.012Z,1.25
2023-10-15T15:25:00.205Z,1.30
2023-10-15T15:28:02.347Z,1.52
2023-10-15T15:31:11.322Z,1.10
2023-10-15T15:34:13.472Z,1.25
2023-10-15T15:37:16.195Z,1.15
2023-10-15T15:40:21.340Z,1.50
2023-10-15T15:43:26.353Z,1.40
2023-10-15T15:46:31.699Z,1.10
2023-10-15T15:49:33.778Z,1.27
2023-10-15T15:52:35.840Z,1.20
2023-10-15T15:55:41.783Z,1.20
2023-10-15T15:58:49.018Z,1.27
2023-10-15T16:01:51.910Z,1.30
2023-10-15T16:04:54.205Z,1.20
2023-10-15T16:07:59.830Z,1.52
2023-10-15T16:11:02.020Z,1.02
2023-10-15T16:14:07.427Z,1.38
2023-10-15T16:17:09.453Z,1.10
2023-10-15T16:20:13.002Z,1.40
2023-10-15T16:23:15.123Z,1.67
2023-10-15T16:26:17.004Z,1.52
2023-10-15T16:29:19.048Z,1.30
2023-10-15T16:32:21.700Z,1.40
2023-10-15T16:35:23.697Z,1.38
2023-10-15T16:38:25.861Z,1.50
2023-10-15T16:41:31.119Z,1.50
2023-10-15T16:44:33.108Z,1.75
2023-10-15T16:47:39.076Z,1.43
2023-10-15T16:50:42.620Z,1.38
2023-10-15T16:53:44.831Z,1.45
2023-10-15T16:56:46.763Z,1.75
2023-10-15T16:59:50.902Z,1.48
2023-10-15T17:02:54.627Z,1.60
2023-10-15T17:05:57.754Z,1.45
2023-10-15T17:09:02.187Z,1.65
2023-10-15T17:12:05.510Z,1.50
2023-10-15T17:15:13.064Z,1.73
2023-10-15T17:18:15.173Z,1.50
2023-10-15T17:21:17.133Z,1.52
2023-10-15T17:24:19.018Z,2.17
2023-10-15T17:27:20.955Z,2.13
2023-10-15T17:30:23.184Z,2.00
2023-10-15T17:33:25.919Z,1.90
2023-10-15T17:36:32.321Z,2.22
2023-10-15T17:39:39.708Z,1.50
2023-10-15T17:42:43.030Z,1.70
2023-10-15T17:45:49.404Z,2.15
2023-10-15T17:48:51.387Z,1.67
2023-10-15T17:51:53.594Z,1.85
2023-10-15T17:54:55.837Z,1.73
2023-10-15T17:57:57.711Z,1.60
2023-10-15T18:01:00.369Z,2.17
2023-10-15T18:04:02.516Z,1.87
2023-10-15T18:07:04.471Z,1.58
2023-10-15T18:10:06.920Z,2.13
2023-10-15T18:13:12.567Z,1.98
2023-10-15T18:16:16.109Z,1.90
2023-10-15T18:19:18.532Z,1.80
2023-10-15T18:22:20.425Z,1.75
2023-10-15T18:25:22.212Z,1.90
2023-10-15T18:28:24.152Z,2.58
2023-10-15T18:31:26.490Z,2.50
2023-10-15T18:34:32.268Z,2.33
2023-10-15T18:37:34.205Z,2.30
2023-10-15T18:40:36.068Z,2.50
2023-10-15T18:43:38.357Z,2.30
2023-10-15T18:46:40.261Z,2.22
2023-10-15T18:49:42.288Z,2.10
2023-10-15T18:52:44.257Z,2.45
2023-10-15T18:55:47.336Z,2.30
2023-10-15T18:58:50.012Z,2.10
2023-10-15T19:01:51.937Z,2.50
2023-10-15T19:04:53.897Z,2.17
2023-10-15T19:07:57.163Z,2.63
2023-10-15T19:10:59.090Z,2.28
2023-10-15T19:14:01.154Z,2.20
2023-10-15T19:17:03.081Z,2.00
2023-10-15T19:20:12.010Z,2.50
2023-10-15T19:23:14.212Z,2.17
2023-10-15T19:26:16.187Z,2.03
2023-10-15T19:29:18.229Z,2.45
2023-10-15T19:32:20.127Z,2.13
2023-10-15T19:35:22.123Z,2.23
2023-10-15T19:38:24.509Z,2.15
2023-10-15T19:41:29.766Z,2.20
2023-10-15T19:44:31.646Z,2.85
2023-10-15T19:47:33.910Z,2.22
2023-10-15T19:50:35.778Z,2.40
2023-10-15T19:53:37.644Z,2.67
2023-10-15T19:56:40.221Z,2.38
2023-10-15T19:59:42.230Z,3.00
2023-10-15T20:02:44.179Z,2.70
2023-10-15T20:05:47.345Z,3.43
2023-10-15T20:08:49.309Z,2.72
2023-10-15T20:11:51.194Z,2.88
2023-10-15T20:14:53.212Z,2.35
2023-10-15T20:17:55.492Z,2.70
2023-10-15T20:20:57.327Z,2.40
2023-10-15T20:23:59.477Z,2.40
2023-10-15T20:27:01.408Z,2.40
2023-10-15T20:30:05.479Z,2.72
2023-10-15T20:33:07.399Z,2.60
2023-10-15T20:36:09.338Z,2.30
2023-10-15T20:39:11.487Z,2.17
2023-10-15T20:42:13.403Z,2.05
2023-10-15T20:45:20.406Z,2.30
2023-10-15T20:48:22.514Z,2.08
2023-10-15T20:51:24.468Z,2.30
2023-10-15T20:54:26.542Z,2.20
2023-10-15T20:57:28.730Z,1.90
2023-10-15T21:00:35.193Z,2.05
2023-10-15T21:03:37.216Z,1.40
2023-10-15T21:06:39.293Z,1.67
2023-10-15T21:09:41.536Z,1.90
2023-10-15T21:12:44.505Z,1.50
2023-10-15T21:15:46.556Z,1.40
2023-10-15T21:18:52.948Z,1.60
2023-10-15T21:21:54.977Z,1.27
2023-10-15T21:24:56.896Z,1.50
2023-10-15T21:27:58.933Z,1.23
2023-10-15T21:31:05.191Z,1.13
2023-10-15T21:34:07.163Z,0.95
2023-10-15T21:37:10.280Z,1.07
2023-10-15T21:40:16.411Z,1.00
2023-10-15T21:43:18.533Z,1.23
2023-10-15T21:46:23.725Z,1.10
2023-10-15T21:49:25.582Z,0.90
2023-10-15T21:52:27.882Z,0.90
2023-10-15T21:55:31.954Z,0.73
2023-10-15T21:58:34.096Z,0.88
2023-10-15T22:01:35.957Z,1.17
2023-10-15T22:04:38.623Z,1.33
2023-10-15T22:07:40.457Z,1.10
2023-10-15T22:10:42.652Z,0.80
2023-10-15T22:13:44.969Z,0.80
2023-10-15T22:16:53.668Z,0.82
2023-10-15T22:19:55.606Z,0.90
2023-10-15T22:22:58.109Z,0.88
2023-10-15T22:26:02.705Z,0.80
2023-10-15T22:29:07.886Z,0.85
2023-10-15T22:32:13.923Z,0.83
2023-10-15T22:35:16.006Z,0.90
2023-10-15T22:38:20.789Z,0.60
2023-10-15T22:41:22.860Z,0.90
2023-10-15T22:44:24.795Z,0.70
2023-10-15T22:47:33.415Z,0.88
2023-10-15T22:50:35.364Z,0.80
2023-10-15T22:53:39.164Z,1.30
2023-10-15T22:56:41.065Z,0.97
2023-10-15T22:59:42.953Z,0.85
2023-10-15T23:02:44.864Z,1.25
2023-10-15T23:05:46.822Z,0.93
2023-10-15T23:08:48.825Z,0.93
2023-10-15T23:11:51.657Z,1.00
2023-10-15T23:14:54.271Z,0.95
2023-10-15T23:18:00.750Z,1.20
2023-10-15T23:21:02.678Z,1.07
2023-10-15T23:24:08.335Z,0.90
2023-10-15T23:27:11.180Z,1.10
2023-10-15T23:30:14.462Z,1.02
2023-10-15T23:33:17.095Z,1.27
2023-10-15T23:36:22.983Z,1.30
2023-10-15T23:39:25.112Z,1.08
2023-10-15T23:42:27.304Z,1.52
2023-10-15T23:45:29.312Z,1.13
2023-10-15T23:48:37.029Z,0.80
2023-10-15T23:51:41.970Z,1.38
2023-10-15T23:54:52.366Z,1.20
2023-10-15T23:57:54.714Z,1.23
